Time;durP1;ratioP1;P1;durP2;ratioP2;P2;SDS_P1;SDS_P2;PMS_P1;PMS_P2;Temp;Humidity;BMP_temperature;BMP_pressure;BME280_temperature;BME280_humidity;BME280_pressure;Samples;Min_cycle;Max_cycle;Signal;HPM_P1;HPM_P2
2021/01/05 00:02:02;;;;;;;17.67;12.45;;;4.10;99.90;;;;;;5065593;28;20425;-80
2021/01/05 00:04:33;;;;;;;18.88;12.38;;;4.20;99.90;;;;;;5052561;28;20060;-80
2021/01/05 00:07:06;;;;;;;18.42;12.98;;;4.20;99.90;;;;;;5069041;28;20078;-80
2021/01/05 00:09:31;;;;;;;22.70;14.02;;;4.30;99.90;;;;;;5051874;28;20477;-80
2021/01/05 00:12:10;;;;;;;18.25;13.00;;;4.30;99.90;;;;;;5046162;28;20037;-80
2021/01/05 00:14:41;;;;;;;21.23;13.10;;;4.30;99.90;;;;;;5057687;28;20166;-80
2021/01/05 00:17:08;;;;;;;19.48;12.95;;;4.30;99.90;;;;;;5045302;28;20017;-80
2021/01/05 00:19:34;;;;;;;17.67;12.48;;;4.30;99.90;;;;;;5044934;28;20022;-81
2021/01/05 00:22:01;;;;;;;17.45;12.68;;;4.30;99.90;;;;;;5047103;28;20029;-80
2021/01/05 00:24:30;;;;;;;20.15;13.55;;;4.30;99.90;;;;;;5043845;28;20032;-80
2021/01/05 00:26:56;;;;;;;19.48;12.77;;;4.20;99.90;;;;;;5040558;28;20124;-80
2021/01/05 00:29:22;;;;;;;19.60;13.13;;;4.00;99.90;;;;;;5051848;28;20049;-80
2021/01/05 00:31:48;;;;;;;20.65;13.60;;;4.10;99.90;;;;;;5045221;28;20108;-80
2021/01/05 00:34:19;;;;;;;21.48;13.95;;;4.10;99.90;;;;;;5045246;28;20467;-80
2021/01/05 00:36:45;;;;;;;20.40;13.55;;;4.20;99.90;;;;;;5044062;28;20021;-80
2021/01/05 00:39:11;;;;;;;19.92;13.45;;;4.20;99.90;;;;;;5048875;28;20009;-80
2021/01/05 00:41:36;;;;;;;19.05;12.73;;;4.20;99.90;;;;;;5050987;28;20021;-80
2021/01/05 00:44:03;;;;;;;21.77;13.55;;;4.20;99.90;;;;;;5055389;28;20032;-80
2021/01/05 00:46:29;;;;;;;17.85;12.23;;;4.30;99.90;;;;;;5059534;28;20032;-80
2021/01/05 00:48:54;;;;;;;21.20;13.43;;;4.40;99.90;;;;;;5051499;28;20029;-81
2021/01/05 00:51:20;;;;;;;24.02;14.98;;;4.40;99.90;;;;;;5050994;28;20099;-80
2021/01/05 00:53:46;;;;;;;21.67;13.88;;;4.40;99.90;;;;;;5048660;28;20025;-80
2021/01/05 00:56:11;;;;;;;22.35;14.45;;;4.20;99.90;;;;;;5051414;28;20100;-80
2021/01/05 00:58:37;;;;;;;21.80;14.10;;;4.30;99.90;;;;;;5051151;28;20025;-80
2021/01/05 01:01:03;;;;;;;22.27;14.38;;;4.20;99.90;;;;;;5042796;28;20032;-80
2021/01/05 01:03:29;;;;;;;22.77;15.00;;;4.20;99.90;;;;;;5047918;28;20600;-80
2021/01/05 01:05:54;;;;;;;22.30;15.13;;;4.30;99.90;;;;;;5056926;28;20496;-80
2021/01/05 01:08:21;;;;;;;24.75;15.25;;;4.40;99.90;;;;;;5050423;28;20035;-80
2021/01/05 01:10:48;;;;;;;23.90;15.27;;;4.30;99.90;;;;;;5047215;28;20021;-80
2021/01/05 01:13:14;;;;;;;24.17;14.75;;;4.20;99.90;;;;;;5057621;28;20025;-80
2021/01/05 01:15:40;;;;;;;25.17;15.18;;;4.20;99.90;;;;;;5056857;28;20013;-80
2021/01/05 01:18:06;;;;;;;22.65;15.20;;;4.20;99.90;;;;;;5047031;28;20036;-80
2021/01/05 01:20:33;;;;;;;25.08;14.88;;;4.20;99.90;;;;;;5049810;28;20025;-80
2021/01/05 01:22:59;;;;;;;25.35;16.42;;;4.20;99.90;;;;;;5043311;28;20047;-80
2021/01/05 01:25:25;;;;;;;24.50;15.48;;;4.20;99.90;;;;;;5045716;28;20029;-80
2021/01/05 01:27:51;;;;;;;24.77;15.25;;;4.30;99.90;;;;;;5052700;28;20393;-80
2021/01/05 01:30:19;;;;;;;25.08;15.85;;;4.30;99.90;;;;;;5051955;28;20088;-80
2021/01/05 01:32:46;;;;;;;27.00;16.95;;;4.30;99.90;;;;;;5045064;28;20044;-80
2021/01/05 01:35:17;;;;;;;23.40;15.45;;;4.20;99.90;;;;;;5052514;28;20080;-80
2021/01/05 01:37:43;;;;;;;26.30;16.47;;;4.20;99.90;;;;;;5051440;28;20473;-80
2021/01/05 01:40:22;;;;;;;27.35;16.98;;;4.20;99.90;;;;;;5040912;28;20318;-80
2021/01/05 01:42:48;;;;;;;24.85;15.32;;;4.30;99.90;;;;;;5047383;28;20032;-80
2021/01/05 01:45:23;;;;;;;24.45;14.88;;;4.40;99.90;;;;;;5051496;28;20025;-80
2021/01/05 01:47:55;;;;;;;26.75;16.60;;;4.30;99.90;;;;;;5054758;28;20033;-80
2021/01/05 01:50:29;;;;;;;26.57;16.63;;;4.30;99.90;;;;;;5045281;28;20026;-80
2021/01/05 01:53:22;;;;;;;27.00;15.95;;;4.30;99.90;;;;;;5052957;28;20644;-80
2021/01/05 01:56:09;;;;;;;24.67;15.55;;;4.20;99.90;;;;;;5056226;28;20025;-80
2021/01/05 01:58:55;;;;;;;26.70;16.50;;;4.30;99.90;;;;;;5046008;28;20067;-80
2021/01/05 02:01:39;;;;;;;25.75;15.65;;;4.40;99.90;;;;;;5066767;28;20461;-80
2021/01/05 02:04:44;;;;;;;25.95;16.08;;;4.30;99.90;;;;;;5065725;28;20029;-80
2021/01/05 02:07:44;;;;;;;26.38;16.58;;;4.40;99.90;;;;;;5050415;28;20438;-80
2021/01/05 02:10:44;;;;;;;23.85;15.27;;;4.30;99.90;;;;;;5065671;28;20124;-81
2021/01/05 02:13:46;;;;;;;25.40;15.43;;;4.30;99.90;;;;;;5050810;28;20041;-80
2021/01/05 02:16:14;;;;;;;27.73;15.43;;;4.30;99.90;;;;;;5051667;28;20090;-80
2021/01/05 02:18:49;;;;;;;26.13;16.50;;;4.30;99.90;;;;;;5046548;28;20036;-80
2021/01/05 02:21:28;;;;;;;29.25;16.15;;;4.40;99.90;;;;;;5069367;28;20047;-81
2021/01/05 02:24:00;;;;;;;28.15;17.25;;;4.40;99.90;;;;;;5051969;28;20036;-80
2021/01/05 02:26:37;;;;;;;29.60;18.92;;;4.40;99.90;;;;;;5051491;28;20052;-81
2021/01/05 02:29:12;;;;;;;28.40;18.45;;;4.30;99.90;;;;;;5049960;28;20024;-81
2021/01/05 02:32:22;;;;;;;26.23;16.45;;;4.30;99.90;;;;;;5046861;28;20120;-80
2021/01/05 02:35:15;;;;;;;25.77;16.10;;;4.30;99.90;;;;;;5041206;28;20032;-80
2021/01/05 02:37:51;;;;;;;25.50;15.68;;;4.20;99.90;;;;;;5064736;28;20025;-80
2021/01/05 02:40:34;;;;;;;28.25;16.77;;;4.20;99.90;;;;;;5052022;28;20017;-80
2021/01/05 02:43:08;;;;;;;26.40;17.58;;;4.20;99.90;;;;;;5048471;28;20027;-81
2021/01/05 02:46:08;;;;;;;27.42;17.58;;;4.20;99.90;;;;;;5056605;28;20032;-81
2021/01/05 02:48:55;;;;;;;27.75;17.35;;;4.30;99.90;;;;;;5047976;28;20017;-80
2021/01/05 02:51:49;;;;;;;26.60;17.70;;;4.30;99.90;;;;;;5043549;28;20365;-80
2021/01/05 02:54:32;;;;;;;28.00;17.73;;;4.30;99.90;;;;;;5034857;28;20087;-80
2021/01/05 02:57:14;;;;;;;24.92;15.52;;;4.30;99.90;;;;;;5038586;28;20075;-81
2021/01/05 03:00:24;;;;;;;28.70;17.48;;;4.20;99.90;;;;;;5052677;28;20114;-81
2021/01/05 03:03:27;;;;;;;26.65;16.52;;;4.20;99.90;;;;;;5053232;28;20116;-80
2021/01/05 03:06:29;;;;;;;29.38;16.88;;;4.10;99.90;;;;;;5037840;28;20426;-80
2021/01/05 03:09:05;;;;;;;30.50;17.52;;;4.10;99.90;;;;;;5030868;28;20033;-81
2021/01/05 03:12:03;;;;;;;32.97;19.80;;;4.20;99.90;;;;;;5040261;28;20124;-80
2021/01/05 03:14:53;;;;;;;27.67;16.75;;;4.20;99.90;;;;;;5037055;28;20041;-80
2021/01/05 03:17:38;;;;;;;28.73;18.10;;;4.30;99.90;;;;;;5030477;28;20022;-80
2021/01/05 03:20:26;;;;;;;30.38;17.60;;;4.30;99.90;;;;;;5016292;28;20026;-80
2021/01/05 03:23:09;;;;;;;28.63;17.08;;;4.30;99.90;;;;;;5032285;28;20038;-80
2021/01/05 03:25:40;;;;;;;29.27;17.67;;;4.40;99.90;;;;;;5047008;28;20127;-80
2021/01/05 03:28:10;;;;;;;28.58;17.02;;;4.30;99.90;;;;;;5045315;28;20481;-80
2021/01/05 03:30:43;;;;;;;31.45;17.70;;;4.20;99.90;;;;;;5050364;28;20025;-80
2021/01/05 03:33:32;;;;;;;30.55;17.42;;;4.20;99.90;;;;;;5054245;28;20033;-80
2021/01/05 03:35:57;;;;;;;46.67;18.48;;;4.30;99.90;;;;;;5037911;28;20099;-80
2021/01/05 03:38:23;;;;;;;31.05;18.70;;;4.30;99.90;;;;;;5034011;28;20052;-80
2021/01/05 03:40:49;;;;;;;31.73;17.85;;;4.30;99.90;;;;;;5040065;28;20029;-80
2021/01/05 03:43:28;;;;;;;29.65;17.48;;;4.30;99.90;;;;;;5045673;28;20037;-81
2021/01/05 03:45:55;;;;;;;31.05;17.48;;;4.20;99.90;;;;;;5050425;28;20114;-80
2021/01/05 03:48:21;;;;;;;26.83;15.80;;;4.30;99.90;;;;;;5053941;28;20020;-80
2021/01/05 03:50:46;;;;;;;30.65;17.27;;;4.30;99.90;;;;;;5049581;28;20025;-80
2021/01/05 03:53:13;;;;;;;25.08;16.42;;;4.30;99.90;;;;;;5049848;28;20026;-81
2021/01/05 03:55:39;;;;;;;28.95;17.58;;;4.40;99.90;;;;;;5052071;28;20070;-80
2021/01/05 03:58:04;;;;;;;29.33;16.95;;;4.40;99.90;;;;;;5051280;28;20025;-80
2021/01/05 04:00:30;;;;;;;31.05;18.27;;;4.40;99.90;;;;;;5053011;28;20503;-80
2021/01/05 04:02:57;;;;;;;26.67;15.93;;;4.30;99.90;;;;;;5053409;28;20061;-80
2021/01/05 04:05:25;;;;;;;28.45;17.30;;;4.40;99.90;;;;;;5051525;28;20161;-75
2021/01/05 04:07:51;;;;;;;28.48;16.92;;;4.30;99.90;;;;;;5043120;28;20104;-75
2021/01/05 04:10:17;;;;;;;28.95;16.60;;;4.20;99.90;;;;;;5056957;28;20032;-75
2021/01/05 04:12:43;;;;;;;29.73;17.27;;;4.20;99.90;;;;;;5059355;28;20418;-75
2021/01/05 04:15:15;;;;;;;28.02;17.13;;;4.30;99.90;;;;;;5060371;28;20048;-75
2021/01/05 04:17:41;;;;;;;31.40;17.33;;;4.30;99.90;;;;;;5048463;28;20021;-75
2021/01/05 04:20:08;;;;;;;26.65;16.15;;;4.40;99.90;;;;;;5046333;28;20115;-75
2021/01/05 04:22:33;;;;;;;27.98;16.88;;;4.30;99.90;;;;;;5052112;28;20021;-75
2021/01/05 04:24:59;;;;;;;26.17;15.60;;;4.40;99.90;;;;;;5045882;28;20040;-75
2021/01/05 04:27:24;;;;;;;29.98;17.35;;;4.40;99.90;;;;;;5049294;28;20096;-75
2021/01/05 04:29:52;;;;;;;25.67;15.98;;;4.40;99.90;;;;;;5050612;28;20021;-75
2021/01/05 04:32:18;;;;;;;26.73;15.65;;;4.40;99.90;;;;;;5047093;28;20046;-75
2021/01/05 04:34:43;;;;;;;27.35;15.95;;;4.40;99.90;;;;;;5049089;28;20033;-75
2021/01/05 04:37:09;;;;;;;27.33;16.13;;;4.20;99.90;;;;;;5052456;28;20018;-75
2021/01/05 04:39:34;;;;;;;26.52;16.85;;;4.30;99.90;;;;;;5039098;28;20135;-75
2021/01/05 04:42:12;;;;;;;28.08;16.95;;;4.40;99.90;;;;;;5050562;28;20048;-75
2021/01/05 04:44:50;;;;;;;25.58;15.40;;;4.50;99.90;;;;;;5041260;28;20071;-75
2021/01/05 04:47:24;;;;;;;28.42;16.55;;;4.30;99.90;;;;;;5040077;28;20389;-75
2021/01/05 04:50:24;;;;;;;23.35;15.40;;;4.30;99.90;;;;;;5048393;28;20060;-75
2021/01/05 04:52:52;;;;;;;26.25;15.48;;;4.20;99.90;;;;;;5057150;28;20029;-75
2021/01/05 04:55:44;;;;;;;25.90;16.45;;;4.30;99.90;;;;;;5051654;28;20036;-75
2021/01/05 04:58:20;;;;;;;28.13;15.93;;;4.40;99.90;;;;;;5050606;28;20496;-75
2021/01/05 05:00:47;;;;;;;25.83;16.15;;;4.40;99.90;;;;;;5052034;28;20033;-75
2021/01/05 05:03:42;;;;;;;26.15;15.65;;;4.30;99.90;;;;;;5047699;28;20422;-75
2021/01/05 05:06:26;;;;;;;25.25;15.40;;;4.40;99.90;;;;;;5074145;28;20021;-75
2021/01/05 05:09:10;;;;;;;24.65;15.43;;;4.30;99.90;;;;;;5044970;28;20044;-75
2021/01/05 05:12:03;;;;;;;25.00;15.65;;;4.30;99.90;;;;;;5048731;28;20068;-74
2021/01/05 05:14:46;;;;;;;25.40;15.52;;;4.30;99.90;;;;;;5039486;28;20048;-75
2021/01/05 05:17:14;;;;;;;25.58;16.02;;;4.30;99.90;;;;;;5051158;28;20021;-75
2021/01/05 05:20:09;;;;;;;26.08;15.73;;;4.30;99.90;;;;;;5048987;28;20025;-75
2021/01/05 05:23:23;;;;;;;24.35;15.50;;;4.40;99.90;;;;;;5052076;28;20037;-75
2021/01/05 05:26:01;;;;;;;24.88;14.85;;;4.40;99.90;;;;;;5051314;28;20124;-75
2021/01/05 05:28:44;;;;;;;26.42;16.05;;;4.30;99.90;;;;;;5045551;28;20044;-75
2021/01/05 05:31:16;;;;;;;23.55;14.32;;;4.30;99.90;;;;;;5048906;28;20120;-75
2021/01/05 05:33:42;;;;;;;25.02;15.45;;;4.30;99.90;;;;;;5058903;28;20511;-75
2021/01/05 05:36:28;;;;;;;23.48;13.65;;;4.40;99.90;;;;;;5051674;28;20127;-75
2021/01/05 05:39:20;;;;;;;26.75;15.27;;;4.30;99.90;;;;;;5051856;28;20385;-75
2021/01/05 05:42:06;;;;;;;26.95;16.08;;;4.30;99.90;;;;;;5049851;28;20444;-75
2021/01/05 05:44:46;;;;;;;25.25;15.07;;;4.30;99.90;;;;;;5051721;28;20024;-75
2021/01/05 05:47:35;;;;;;;25.52;15.05;;;4.40;99.90;;;;;;5050406;28;20036;-75
2021/01/05 05:50:18;;;;;;;24.05;14.98;;;4.30;99.90;;;;;;5050352;28;20029;-75
2021/01/05 05:52:55;;;;;;;24.80;16.02;;;4.40;99.90;;;;;;5043699;28;20032;-74
2021/01/05 05:55:48;;;;;;;24.90;14.50;;;4.30;99.90;;;;;;5054220;28;20059;-75
2021/01/05 05:58:21;;;;;;;25.15;14.82;;;4.30;99.90;;;;;;5053371;28;20389;-75
2021/01/05 06:00:50;;;;;;;23.98;14.93;;;4.30;99.90;;;;;;5049621;28;20474;-75
2021/01/05 06:03:20;;;;;;;24.75;15.45;;;4.30;99.90;;;;;;5048575;28;20029;-75
2021/01/05 06:05:46;;;;;;;25.73;15.68;;;4.30;99.90;;;;;;5048705;28;20025;-74
2021/01/05 06:08:14;;;;;;;25.73;15.98;;;4.30;99.90;;;;;;5055372;28;20038;-75
2021/01/05 06:10:40;;;;;;;23.10;15.13;;;4.20;99.90;;;;;;5048790;28;20048;-75
2021/01/05 06:13:06;;;;;;;25.73;16.05;;;4.30;99.90;;;;;;5051026;28;20013;-75
2021/01/05 06:15:34;;;;;;;27.77;15.95;;;4.30;99.90;;;;;;5055430;28;20611;-75
2021/01/05 06:18:02;;;;;;;27.25;16.70;;;4.30;99.90;;;;;;5051681;28;20021;-75
2021/01/05 06:20:27;;;;;;;26.90;15.45;;;4.30;99.90;;;;;;5061719;28;20891;-75
2021/01/05 06:22:54;;;;;;;26.60;15.38;;;4.30;99.90;;;;;;5051578;28;20028;-75
2021/01/05 06:25:20;;;;;;;23.45;15.20;;;4.20;99.90;;;;;;5045909;28;20560;-75
2021/01/05 06:27:46;;;;;;;28.25;16.45;;;4.20;99.90;;;;;;5050696;28;20057;-75
2021/01/05 06:30:12;;;;;;;27.63;15.52;;;4.20;99.90;;;;;;5047732;28;20111;-75
2021/01/05 06:32:38;;;;;;;28.48;16.30;;;4.20;99.90;;;;;;5051501;28;20039;-75
2021/01/05 06:35:04;;;;;;;30.20;17.15;;;4.20;99.90;;;;;;5049326;28;20031;-75
2021/01/05 06:37:30;;;;;;;27.90;15.30;;;4.10;99.90;;;;;;5052732;28;20009;-75
2021/01/05 06:39:56;;;;;;;26.35;16.15;;;4.30;99.90;;;;;;5048347;28;20354;-75
2021/01/05 06:42:21;;;;;;;28.83;16.40;;;4.30;99.90;;;;;;5054051;28;20033;-75
2021/01/05 06:44:47;;;;;;;30.50;17.65;;;4.20;99.90;;;;;;5047742;28;20432;-75
2021/01/05 06:47:13;;;;;;;27.13;16.17;;;4.30;99.90;;;;;;5054581;28;20115;-75
2021/01/05 06:49:39;;;;;;;30.88;16.27;;;4.30;99.90;;;;;;5041255;28;20075;-75
2021/01/05 06:52:05;;;;;;;29.67;16.77;;;4.20;99.90;;;;;;5050357;28;20538;-74
2021/01/05 06:54:32;;;;;;;27.45;16.52;;;4.20;99.90;;;;;;5054429;28;20025;-75
2021/01/05 06:56:58;;;;;;;30.10;17.65;;;4.20;99.90;;;;;;5048633;28;20107;-75
2021/01/05 06:59:25;;;;;;;28.52;15.45;;;4.30;99.90;;;;;;5058732;28;20075;-75
2021/01/05 07:01:56;;;;;;;29.02;17.80;;;4.30;99.90;;;;;;5047933;28;20143;-75
2021/01/05 07:04:23;;;;;;;31.77;16.73;;;4.30;99.90;;;;;;5051579;28;20027;-75
2021/01/05 07:06:50;;;;;;;28.10;15.93;;;4.30;99.90;;;;;;5052012;28;20481;-75
2021/01/05 07:09:17;;;;;;;29.48;16.45;;;4.30;99.90;;;;;;5058037;28;20021;-75
2021/01/05 07:11:44;;;;;;;26.67;15.48;;;4.40;99.90;;;;;;5052137;28;20044;-75
2021/01/05 07:14:12;;;;;;;28.38;15.38;;;4.30;99.90;;;;;;5053218;28;20115;-75
2021/01/05 07:16:38;;;;;;;25.77;15.75;;;4.30;99.90;;;;;;5053714;28;20438;-75
2021/01/05 07:19:04;;;;;;;27.65;15.73;;;4.40;99.90;;;;;;5046513;28;20045;-75
2021/01/05 07:21:30;;;;;;;29.55;16.20;;;4.50;99.90;;;;;;5046233;28;20104;-75
2021/01/05 07:23:55;;;;;;;28.83;16.38;;;4.40;99.90;;;;;;5045023;28;20111;-75
2021/01/05 07:26:21;;;;;;;27.35;16.48;;;4.40;99.90;;;;;;5048957;28;20078;-75
2021/01/05 07:28:47;;;;;;;29.58;16.33;;;4.50;99.90;;;;;;5048242;28;20021;-75
2021/01/05 07:31:13;;;;;;;32.40;16.63;;;4.50;99.90;;;;;;5046255;28;20037;-75
2021/01/05 07:33:38;;;;;;;28.63;16.08;;;4.60;99.90;;;;;;5046906;28;20498;-75
2021/01/05 07:36:20;;;;;;;29.25;15.13;;;4.60;99.90;;;;;;5046962;28;20032;-74
2021/01/05 07:38:46;;;;;;;32.40;17.38;;;4.60;99.90;;;;;;5047460;28;20037;-75
2021/01/05 07:41:12;;;;;;;28.98;15.38;;;4.50;99.90;;;;;;5051985;28;20029;-75
2021/01/05 07:43:37;;;;;;;30.80;17.17;;;4.60;99.90;;;;;;5041019;28;20052;-74
2021/01/05 07:46:03;;;;;;;31.25;17.30;;;4.70;99.90;;;;;;5050847;28;20171;-74
2021/01/05 07:48:29;;;;;;;26.98;15.50;;;4.60;99.90;;;;;;5039371;28;20099;-75
2021/01/05 07:50:54;;;;;;;28.40;16.27;;;4.60;99.90;;;;;;5049960;28;20033;-75
2021/01/05 07:53:20;;;;;;;30.13;16.73;;;4.60;99.90;;;;;;5052852;28;20388;-75
2021/01/05 07:55:46;;;;;;;31.30;17.85;;;4.60;99.90;;;;;;5053082;28;20017;-75
2021/01/05 07:58:12;;;;;;;31.38;18.08;;;4.60;99.90;;;;;;5047804;28;20550;-75
2021/01/05 08:00:37;;;;;;;32.00;17.73;;;4.50;99.90;;;;;;5048828;28;20025;-75
2021/01/05 08:03:03;;;;;;;34.70;18.27;;;4.50;99.90;;;;;;5047130;28;20029;-77
2021/01/05 08:05:29;;;;;;;36.22;18.58;;;4.60;99.90;;;;;;5043813;28;20013;-77
2021/01/05 08:07:56;;;;;;;36.20;18.50;;;4.50;99.90;;;;;;5066050;28;20028;-75
2021/01/05 08:10:29;;;;;;;33.63;18.52;;;4.50;99.90;;;;;;5050542;28;20029;-75
2021/01/05 08:12:55;;;;;;;38.40;19.25;;;4.50;99.90;;;;;;5048217;28;20028;-75
2021/01/05 08:15:23;;;;;;;34.35;18.83;;;4.60;99.90;;;;;;5045174;28;20025;-75
2021/01/05 08:17:50;;;;;;;36.42;19.35;;;4.60;99.90;;;;;;5039981;28;20029;-76
2021/01/05 08:20:21;;;;;;;39.00;20.02;;;4.60;99.90;;;;;;5052482;28;20021;-76
2021/01/05 08:22:46;;;;;;;34.17;18.83;;;4.60;99.90;;;;;;5049161;28;20096;-76
2021/01/05 08:25:14;;;;;;;34.72;18.58;;;4.70;99.90;;;;;;5047964;28;20120;-76
2021/01/05 08:27:41;;;;;;;33.00;18.35;;;4.60;99.90;;;;;;5049371;28;20027;-76
2021/01/05 08:30:08;;;;;;;35.00;19.52;;;4.60;99.90;;;;;;5050856;28;20100;-76
2021/01/05 08:32:33;;;;;;;36.25;20.67;;;4.60;99.90;;;;;;5041508;28;20033;-76
2021/01/05 08:35:00;;;;;;;35.25;19.13;;;4.60;99.90;;;;;;5050098;28;20021;-76
2021/01/05 08:37:25;;;;;;;34.95;18.05;;;4.60;99.90;;;;;;5051393;28;20029;-75
2021/01/05 08:39:51;;;;;;;36.65;18.55;;;4.50;99.90;;;;;;5051947;28;20024;-75
2021/01/05 08:42:17;;;;;;;34.65;18.40;;;4.60;99.90;;;;;;5066735;28;20021;-75
2021/01/05 08:44:43;;;;;;;39.17;20.30;;;4.60;99.90;;;;;;5049112;28;20028;-75
2021/01/05 08:47:09;;;;;;;34.95;19.02;;;4.60;99.90;;;;;;5050394;28;20051;-76
2021/01/05 08:49:35;;;;;;;35.88;19.25;;;4.50;99.90;;;;;;5054098;28;20041;-75
2021/01/05 08:52:01;;;;;;;35.92;19.70;;;4.60;99.90;;;;;;5055203;28;20392;-76
2021/01/05 08:54:27;;;;;;;35.35;19.95;;;4.60;99.90;;;;;;5047045;28;20056;-76
2021/01/05 08:57:00;;;;;;;34.80;19.02;;;4.70;99.90;;;;;;5045958;28;20100;-76
2021/01/05 08:59:26;;;;;;;33.83;18.38;;;4.60;99.90;;;;;;5049604;28;20473;-75
2021/01/05 09:01:52;;;;;;;37.13;19.50;;;4.70;99.90;;;;;;5047151;28;20029;-76
2021/01/05 09:04:18;;;;;;;38.83;21.00;;;4.70;99.90;;;;;;5046428;28;20029;-75
2021/01/05 09:06:48;;;;;;;35.17;18.27;;;4.70;99.90;;;;;;5047905;28;20024;-76
2021/01/05 09:09:16;;;;;;;32.00;18.27;;;4.70;99.90;;;;;;5047679;28;20029;-75
2021/01/05 09:11:42;;;;;;;34.40;18.90;;;4.60;99.90;;;;;;5046882;28;20095;-75
2021/01/05 09:14:08;;;;;;;31.83;18.13;;;4.70;99.90;;;;;;5049002;28;20065;-75
2021/01/05 09:16:34;;;;;;;36.95;19.73;;;4.70;99.90;;;;;;5049397;28;20027;-76
2021/01/05 09:19:00;;;;;;;39.55;18.60;;;4.50;99.90;;;;;;5049028;28;20036;-73
2021/01/05 09:21:28;;;;;;;33.88;18.17;;;4.60;99.90;;;;;;5046520;28;20103;-76
2021/01/05 09:23:59;;;;;;;33.17;18.58;;;4.60;99.90;;;;;;5048673;28;20044;-76
2021/01/05 09:26:35;;;;;;;35.58;19.92;;;4.70;99.90;;;;;;5047774;28;20024;-76
2021/01/05 09:29:04;;;;;;;32.50;18.05;;;4.70;99.90;;;;;;5058309;28;20032;-76
2021/01/05 09:31:32;;;;;;;34.80;17.85;;;4.60;99.90;;;;;;5049160;28;20047;-76
2021/01/05 09:33:57;;;;;;;33.97;18.50;;;4.60;99.90;;;;;;5055417;28;20448;-77
2021/01/05 09:36:32;;;;;;;33.13;18.15;;;4.60;99.90;;;;;;5053330;28;20024;-76
2021/01/05 09:39:01;;;;;;;33.13;18.27;;;4.60;99.90;;;;;;5045410;28;20454;-76
2021/01/05 09:41:44;;;;;;;36.80;19.15;;;4.60;99.90;;;;;;5054833;28;20488;-76
2021/01/05 09:44:11;;;;;;;36.58;18.25;;;4.70;99.90;;;;;;5067473;28;20045;-76
2021/01/05 09:46:41;;;;;;;36.33;18.40;;;4.70;99.90;;;;;;5048661;28;20025;-75
2021/01/05 09:49:14;;;;;;;35.33;18.55;;;4.70;99.90;;;;;;5050551;28;20130;-76
2021/01/05 09:51:40;;;;;;;;;;;4.60;99.90;;;;;;5066546;28;20052;-76
2021/01/05 09:54:06;;;;;;;35.65;17.67;;;4.60;99.90;;;;;;5055984;28;19948;-75
2021/01/05 09:56:33;;;;;;;32.47;17.73;;;4.70;99.90;;;;;;5045940;28;20014;-76
2021/01/05 09:58:59;;;;;;;39.03;20.27;;;4.80;99.90;;;;;;5051653;28;20025;-75
2021/01/05 10:01:27;;;;;;;36.25;18.02;;;4.80;99.90;;;;;;5049524;28;20028;-76
2021/01/05 10:03:53;;;;;;;35.17;18.27;;;4.80;99.90;;;;;;5065146;28;20742;-76
2021/01/05 10:06:19;;;;;;;33.88;18.40;;;4.80;99.90;;;;;;5048967;28;20033;-75
2021/01/05 10:08:44;;;;;;;33.53;18.00;;;4.70;99.90;;;;;;5051266;28;20017;-75
2021/01/05 10:11:10;;;;;;;35.65;19.25;;;4.80;99.90;;;;;;5050207;28;20029;-75
2021/01/05 10:13:36;;;;;;;32.03;19.02;;;4.90;99.90;;;;;;5051534;28;20413;-76
2021/01/05 10:16:02;;;;;;;33.97;18.48;;;4.80;99.90;;;;;;5049569;28;20036;-75
2021/01/05 10:18:27;;;;;;;30.23;17.25;;;4.90;99.90;;;;;;5055004;28;20027;-75
2021/01/05 10:20:53;;;;;;;34.97;19.38;;;4.90;99.90;;;;;;5055932;28;20036;-76
2021/01/05 10:23:19;;;;;;;36.13;19.95;;;5.00;99.90;;;;;;5049052;28;20021;-75
2021/01/05 10:25:47;;;;;;;39.70;20.92;;;4.90;99.90;;;;;;5043689;28;20024;-75
2021/01/05 10:28:13;;;;;;;37.15;19.95;;;4.80;99.90;;;;;;5051928;28;20021;-75
2021/01/05 10:30:38;;;;;;;37.75;19.92;;;4.90;99.90;;;;;;5053293;28;20025;-76
2021/01/05 10:33:04;;;;;;;37.05;20.63;;;4.90;99.90;;;;;;5050819;28;20488;-75
2021/01/05 10:35:30;;;;;;;37.40;19.73;;;4.90;99.90;;;;;;5050517;28;20090;-75
2021/01/05 10:37:56;;;;;;;35.58;18.98;;;4.90;99.90;;;;;;5050936;28;20402;-75
2021/01/05 10:40:22;;;;;;;34.05;18.98;;;4.80;99.90;;;;;;5052687;28;20358;-75
2021/01/05 10:42:50;;;;;;;35.15;18.77;;;4.80;99.90;;;;;;5055413;28;20024;-75
2021/01/05 10:45:26;;;;;;;36.03;18.85;;;4.70;99.90;;;;;;5045286;28;20037;-75
2021/01/05 10:47:53;;;;;;;34.08;18.02;;;4.70;99.90;;;;;;5047643;28;20114;-75
2021/01/05 10:50:22;;;;;;;33.88;17.35;;;4.80;99.90;;;;;;5061592;28;20129;-75
2021/01/05 10:52:50;;;;;;;32.70;18.17;;;4.70;99.90;;;;;;5066593;28;20025;-75
2021/01/05 10:55:18;;;;;;;31.40;16.90;;;4.70;99.90;;;;;;5050291;28;20068;-76
2021/01/05 10:57:44;;;;;;;34.97;18.13;;;4.60;99.90;;;;;;5050786;28;20021;-75
2021/01/05 11:00:20;;;;;;;35.65;17.52;;;4.60;99.90;;;;;;5047165;28;20040;-75
2021/01/05 11:02:45;;;;;;;34.97;17.35;;;4.60;99.90;;;;;;5054020;28;20083;-75
2021/01/05 11:05:14;;;;;;;32.15;17.40;;;4.60;99.90;;;;;;5050626;28;20064;-75
2021/01/05 11:07:41;;;;;;;34.08;17.20;;;4.60;99.90;;;;;;5067191;28;20473;-75
2021/01/05 11:10:08;;;;;;;37.35;18.73;;;4.70;99.90;;;;;;5054742;28;20029;-75
2021/01/05 11:12:34;;;;;;;36.42;19.42;;;4.70;99.90;;;;;;5054238;28;20122;-75
2021/01/05 11:14:59;;;;;;;37.10;18.10;;;4.60;99.90;;;;;;5038897;28;20116;-75
2021/01/05 11:17:25;;;;;;;37.33;18.33;;;4.80;99.90;;;;;;5050803;28;20041;-75
2021/01/05 11:19:51;;;;;;;33.85;18.02;;;4.80;99.90;;;;;;5050499;28;20040;-75
2021/01/05 11:22:18;;;;;;;33.45;18.08;;;4.90;99.90;;;;;;5054055;28;20474;-75
2021/01/05 11:24:45;;;;;;;36.13;18.98;;;5.00;99.90;;;;;;5049000;28;20104;-75
2021/01/05 11:27:14;;;;;;;34.90;18.35;;;5.00;99.90;;;;;;5053457;28;20107;-75
2021/01/05 11:29:40;;;;;;;33.28;18.15;;;5.00;99.90;;;;;;5048967;28;20033;-75
2021/01/05 11:32:09;;;;;;;37.35;18.65;;;4.90;99.90;;;;;;5051967;28;20048;-75
2021/01/05 11:34:36;;;;;;;37.28;18.35;;;5.00;99.90;;;;;;5049295;28;20377;-75
2021/01/05 11:37:10;;;;;;;35.60;17.95;;;5.00;99.90;;;;;;5052337;28;20028;-75
2021/01/05 11:39:38;;;;;;;38.15;17.70;;;5.00;99.90;;;;;;5052302;28;20032;-75
2021/01/05 11:42:05;;;;;;;37.35;18.60;;;5.00;99.90;;;;;;5046480;28;20033;-75
2021/01/05 11:44:30;;;;;;;37.78;17.50;;;5.00;99.90;;;;;;5046562;28;20040;-75
2021/01/05 11:46:56;;;;;;;36.72;18.38;;;4.90;99.90;;;;;;5047001;28;20033;-75
2021/01/05 11:49:23;;;;;;;32.38;16.92;;;5.00;99.90;;;;;;5046564;28;20078;-75
2021/01/05 11:51:54;;;;;;;34.67;16.95;;;4.90;99.90;;;;;;5045414;28;20029;-75
2021/01/05 11:54:21;;;;;;;38.00;19.25;;;4.90;99.90;;;;;;5063721;28;20128;-75
2021/01/05 11:56:48;;;;;;;35.40;18.35;;;4.90;99.90;;;;;;5075170;28;20013;-74
2021/01/05 11:59:14;;;;;;;37.60;18.25;;;5.00;99.90;;;;;;5048252;28;20017;-75
2021/01/05 12:01:41;;;;;;;33.83;17.25;;;4.90;99.90;;;;;;5050850;28;20021;-75
2021/01/05 12:04:10;;;;;;;35.15;17.65;;;4.80;99.90;;;;;;5052988;28;20021;-75
2021/01/05 12:06:35;;;;;;;34.67;17.75;;;4.90;99.90;;;;;;5054009;28;20048;-75
2021/01/05 12:09:02;;;;;;;32.72;16.67;;;4.90;99.90;;;;;;5053477;28;20461;-75
2021/01/05 12:11:31;;;;;;;32.75;17.02;;;4.80;99.90;;;;;;5051133;28;20021;-76
2021/01/05 12:13:57;;;;;;;33.03;16.77;;;4.80;99.90;;;;;;5050425;28;20469;-75
2021/01/05 12:16:25;;;;;;;31.27;16.23;;;4.80;99.90;;;;;;5054877;28;20042;-75
2021/01/05 12:18:52;;;;;;;30.45;16.00;;;4.70;99.90;;;;;;5049014;28;20043;-75
2021/01/05 12:21:25;;;;;;;31.15;16.40;;;4.80;99.90;;;;;;5052798;28;20485;-75
2021/01/05 12:23:51;;;;;;;31.13;17.02;;;4.80;99.90;;;;;;5053437;28;20108;-75
2021/01/05 12:26:29;;;;;;;33.40;16.65;;;4.70;99.90;;;;;;5046559;28;20112;-75
2021/01/05 12:28:56;;;;;;;32.28;16.55;;;4.80;99.90;;;;;;5053258;28;20024;-75
2021/01/05 12:31:22;;;;;;;29.35;15.50;;;4.80;99.90;;;;;;5048422;28;20049;-75
2021/01/05 12:33:48;;;;;;;32.50;16.95;;;4.80;99.90;;;;;;5048083;28;20033;-75
2021/01/05 12:36:30;;;;;;;31.20;15.90;;;4.80;99.90;;;;;;5076885;28;20021;-75
2021/01/05 12:38:57;;;;;;;29.48;16.08;;;4.80;99.90;;;;;;5043595;28;20037;-75
2021/01/05 12:41:31;;;;;;;32.30;16.40;;;4.80;99.90;;;;;;5051535;28;20021;-75
2021/01/05 12:43:56;;;;;;;28.40;15.80;;;4.80;99.90;;;;;;5048415;28;20145;-75
2021/01/05 12:46:28;;;;;;;30.85;16.77;;;4.90;99.90;;;;;;5045460;28;20088;-75
2021/01/05 12:48:54;;;;;;;34.97;17.38;;;4.80;99.90;;;;;;5044216;28;20028;-74
2021/01/05 12:51:32;;;;;;;31.08;17.38;;;4.80;99.90;;;;;;5051307;28;20385;-75
2021/01/05 12:53:58;;;;;;;33.22;17.13;;;4.90;99.90;;;;;;5041161;28;20021;-75
2021/01/05 12:56:25;;;;;;;38.42;18.75;;;4.80;99.90;;;;;;5052684;28;20025;-75
2021/01/05 12:58:51;;;;;;;32.45;18.38;;;4.70;99.90;;;;;;5045358;28;20021;-75